Time;durP1;ratioP1;P1;durP2;ratioP2;P2;SDS_P1;SDS_P2;PMS_P1;PMS_P2;Temp;Humidity;BMP_temperature;BMP_pressure;BME280_temperature;BME280_humidity;BME280_pressure;Samples;Min_cycle;Max_cycle;Signal;HPM_P1;HPM_P2
2023/04/08 04:01:52;;;;;;;29.52;15.75;;;2.80;99.90;;;;;;5419290;22;20172;-76
2023/04/08 04:04:18;;;;;;;31.40;16.42;;;2.70;99.90;;;;;;5052383;28;20471;-75
2023/04/08 04:06:44;;;;;;;28.30;15.40;;;2.70;99.90;;;;;;5054039;28;20438;-77
2023/04/08 04:09:10;;;;;;;29.88;15.93;;;2.70;99.90;;;;;;5053903;28;20083;-76
2023/04/08 04:11:36;;;;;;;32.35;16.85;;;2.70;99.90;;;;;;5053307;28;20029;-75
2023/04/08 04:14:02;;;;;;;31.50;16.55;;;2.70;99.90;;;;;;5052965;28;20072;-74
2023/04/08 04:16:27;;;;;;;29.40;16.40;;;2.60;99.90;;;;;;5051455;28;20076;-75
2023/04/08 04:18:53;;;;;;;32.03;16.50;;;2.60;99.90;;;;;;5052520;28;20106;-75
2023/04/08 04:21:18;;;;;;;34.17;16.33;;;2.60;99.90;;;;;;5052261;28;20128;-77
2023/04/08 04:23:44;;;;;;;37.38;18.90;;;2.60;99.90;;;;;;5052489;28;20048;-77
2023/04/08 04:26:10;;;;;;;36.03;17.35;;;2.60;99.90;;;;;;5053630;28;20472;-75
2023/04/08 04:28:37;;;;;;;30.77;16.95;;;2.60;99.90;;;;;;5052116;28;20040;-76
2023/04/08 04:31:03;;;;;;;32.95;18.02;;;2.60;99.90;;;;;;5053690;28;20047;-76
2023/04/08 04:33:29;;;;;;;37.33;17.65;;;2.60;99.90;;;;;;5052065;28;20041;-75
2023/04/08 04:35:55;;;;;;;37.78;17.98;;;2.60;99.90;;;;;;5053627;28;20061;-75
2023/04/08 04:38:20;;;;;;;37.22;17.52;;;2.60;99.90;;;;;;5051609;28;20187;-75
2023/04/08 04:40:46;;;;;;;37.20;19.13;;;2.60;99.90;;;;;;5053480;28;20032;-75
2023/04/08 04:43:11;;;;;;;36.83;19.23;;;2.60;99.90;;;;;;5051844;28;20049;-76
2023/04/08 04:45:37;;;;;;;36.03;17.58;;;2.50;99.90;;;;;;5051776;28;20041;-76
2023/04/08 04:48:04;;;;;;;38.28;18.40;;;2.50;99.90;;;;;;5033201;28;20053;-75
2023/04/08 04:50:30;;;;;;;37.88;19.02;;;2.50;99.90;;;;;;5031796;28;20056;-75
2023/04/08 04:52:55;;;;;;;43.47;19.15;;;2.50;99.90;;;;;;5032272;28;20042;-75
2023/04/08 04:55:21;;;;;;;36.53;18.95;;;2.50;99.90;;;;;;5032124;28;20515;-74
2023/04/08 04:57:50;;;;;;;38.67;18.58;;;2.50;99.90;;;;;;5031791;28;20425;-76
2023/04/08 05:00:16;;;;;;;37.88;18.42;;;2.40;99.90;;;;;;5031372;28;20042;-74
2023/04/08 05:02:42;;;;;;;40.30;18.50;;;2.40;99.90;;;;;;5031635;28;20120;-76
2023/04/08 05:05:08;;;;;;;36.72;18.73;;;2.40;99.90;;;;;;5032970;28;20443;-74
2023/04/08 05:07:37;;;;;;;38.45;18.25;;;2.40;99.90;;;;;;5031499;28;20061;-77
2023/04/08 05:10:04;;;;;;;42.15;20.63;;;2.40;99.90;;;;;;5031842;28;20434;-76
2023/04/08 05:12:30;;;;;;;43.10;19.42;;;2.40;99.90;;;;;;5031836;28;20465;-75
2023/04/08 05:14:58;;;;;;;38.17;19.13;;;2.40;99.90;;;;;;5032882;28;20048;-75
2023/04/08 05:17:24;;;;;;;48.85;21.60;;;2.40;99.90;;;;;;5031416;28;20049;-76
2023/04/08 05:19:52;;;;;;;38.33;19.05;;;2.40;99.90;;;;;;5015267;28;20426;-76
2023/04/08 05:22:17;;;;;;;40.85;19.30;;;2.40;99.90;;;;;;5032760;28;20072;-74
2023/04/08 05:24:43;;;;;;;48.08;20.80;;;2.50;99.90;;;;;;5032993;28;20067;-74
2023/04/08 05:27:08;;;;;;;45.25;20.55;;;2.50;99.90;;;;;;5031556;28;20037;-77
2023/04/08 05:29:34;;;;;;;46.53;20.23;;;2.50;99.90;;;;;;5033021;28;20044;-75
2023/04/08 05:32:00;;;;;;;42.05;19.85;;;2.50;99.90;;;;;;5015260;28;20389;-75
2023/04/08 05:34:26;;;;;;;41.40;20.02;;;2.50;99.90;;;;;;5015211;28;20046;-76
2023/04/08 05:36:51;;;;;;;41.03;20.52;;;2.60;99.90;;;;;;5011550;28;20112;-76
2023/04/08 05:39:18;;;;;;;43.28;19.67;;;2.60;99.90;;;;;;5011225;28;20458;-75
2023/04/08 05:41:44;;;;;;;46.75;20.92;;;2.60;99.90;;;;;;5011595;28;20132;-77
2023/04/08 05:44:10;;;;;;;41.53;20.45;;;2.70;99.90;;;;;;5013072;28;20092;-76
2023/04/08 05:46:37;;;;;;;46.58;21.50;;;2.70;99.90;;;;;;5011488;28;20042;-77
2023/04/08 05:49:02;;;;;;;46.90;20.98;;;2.70;99.90;;;;;;5012605;28;20038;-76
2023/04/08 05:51:28;;;;;;;44.63;20.48;;;2.80;99.90;;;;;;5016772;28;20037;-76
2023/04/08 05:53:54;;;;;;;48.85;21.65;;;2.80;99.90;;;;;;5015142;28;20058;-76
2023/04/08 05:56:19;;;;;;;41.63;20.52;;;2.90;99.90;;;;;;5015334;28;20075;-78
2023/04/08 05:58:46;;;;;;;45.42;21.40;;;2.90;99.90;;;;;;5015580;28;20125;-76
2023/04/08 06:01:11;;;;;;;49.72;22.05;;;3.00;99.90;;;;;;5015230;28;20050;-78
2023/04/08 06:03:37;;;;;;;47.40;21.05;;;3.10;99.90;;;;;;5015230;28;20049;-77
2023/04/08 06:06:03;;;;;;;45.10;21.85;;;3.10;99.90;;;;;;5016657;28;20057;-76
2023/04/08 06:08:28;;;;;;;41.58;20.48;;;3.20;99.90;;;;;;5015649;28;20377;-78
2023/04/08 06:10:54;;;;;;;49.72;21.73;;;3.30;99.90;;;;;;5015268;28;20046;-75
2023/04/08 06:13:20;;;;;;;51.17;23.45;;;3.30;99.90;;;;;;5015680;28;20101;-78
2023/04/08 06:15:47;;;;;;;50.40;23.20;;;3.40;99.90;;;;;;5019404;28;20037;-76
2023/04/08 06:18:15;;;;;;;43.72;21.45;;;3.40;99.90;;;;;;5025346;28;20041;-73
2023/04/08 06:20:40;;;;;;;45.42;22.23;;;3.50;99.90;;;;;;5004076;28;20076;-75
2023/04/08 06:23:06;;;;;;;45.25;22.80;;;3.60;99.90;;;;;;5015732;28;20438;-76
2023/04/08 06:25:31;;;;;;;44.75;22.75;;;3.70;99.90;;;;;;5016633;28;20088;-77
2023/04/08 06:27:57;;;;;;;51.05;23.00;;;3.80;99.90;;;;;;5015028;28;20099;-77
2023/04/08 06:30:23;;;;;;;45.17;23.00;;;3.90;99.90;;;;;;5016119;28;20033;-81
2023/04/08 06:32:48;;;;;;;42.88;21.45;;;4.00;99.90;;;;;;5014854;28;20038;-77
2023/04/08 06:35:14;;;;;;;50.20;22.52;;;4.00;99.90;;;;;;5014839;28;20080;-76
2023/04/08 06:37:40;;;;;;;40.08;21.38;;;4.10;99.90;;;;;;5014920;28;20104;-80
2023/04/08 06:40:06;;;;;;;43.45;21.17;;;4.10;99.90;;;;;;5014767;28;20505;-74
2023/04/08 06:42:32;;;;;;;44.92;21.83;;;4.10;99.90;;;;;;5014520;28;20107;-75
2023/04/08 06:44:58;;;;;;;42.05;22.40;;;4.20;99.90;;;;;;5014315;28;20466;-78
2023/04/08 06:47:23;;;;;;;42.00;21.30;;;4.20;99.90;;;;;;5014649;28;20053;-77
2023/04/08 06:49:49;;;;;;;44.63;21.58;;;4.10;99.90;;;;;;5014417;28;20091;-77
2023/04/08 06:52:15;;;;;;;44.80;22.33;;;4.10;99.90;;;;;;5014681;28;20041;-78
2023/04/08 06:54:41;;;;;;;43.90;22.10;;;4.20;99.90;;;;;;5014260;28;20477;-77
2023/04/08 06:57:07;;;;;;;44.38;21.90;;;4.20;99.90;;;;;;4997897;28;20046;-78
2023/04/08 06:59:32;;;;;;;43.42;22.30;;;4.30;99.90;;;;;;5013898;28;20482;-77
2023/04/08 07:01:58;;;;;;;45.40;22.80;;;4.40;99.90;;;;;;5014140;28;20048;-78
2023/04/08 07:04:23;;;;;;;50.33;22.17;;;4.50;99.90;;;;;;5013995;28;20131;-75
2023/04/08 07:06:49;;;;;;;46.00;22.55;;;4.50;99.90;;;;;;5012892;28;20477;-77
2023/04/08 07:09:15;;;;;;;45.22;22.88;;;4.70;99.90;;;;;;5013877;28;20045;-77
2023/04/08 07:11:41;;;;;;;42.53;21.90;;;4.80;99.90;;;;;;5011948;28;20038;-76
2023/04/08 07:14:06;;;;;;;41.15;20.80;;;4.90;99.90;;;;;;5012417;28;20033;-78
2023/04/08 07:16:32;;;;;;;44.13;21.85;;;5.00;99.90;;;;;;5012440;28;20041;-77
2023/04/08 07:18:58;;;;;;;44.75;21.95;;;5.10;99.90;;;;;;5012641;28;20034;-78
2023/04/08 07:21:23;;;;;;;43.53;22.90;;;5.20;99.90;;;;;;5012204;28;20492;-78
2023/04/08 07:23:49;;;;;;;42.25;22.77;;;5.30;99.90;;;;;;5012492;28;20046;-77
2023/04/08 07:26:15;;;;;;;41.05;22.23;;;5.40;99.90;;;;;;5013224;28;20053;-78
2023/04/08 07:28:41;;;;;;;42.70;21.98;;;5.40;99.90;;;;;;5011974;28;20040;-77
2023/04/08 07:31:10;;;;;;;40.70;21.73;;;5.50;99.90;;;;;;5012104;28;20048;-78
2023/04/08 07:33:36;;;;;;;41.33;20.88;;;5.50;99.90;;;;;;5013300;28;20034;-77
2023/04/08 07:36:02;;;;;;;40.05;20.98;;;5.60;99.90;;;;;;5013635;28;20428;-79
2023/04/08 07:38:27;;;;;;;37.30;20.23;;;5.70;99.90;;;;;;5012268;28;20437;-78
2023/04/08 07:40:53;;;;;;;40.78;21.50;;;5.80;99.90;;;;;;5013284;28;20238;-77
2023/04/08 07:43:19;;;;;;;40.50;21.73;;;5.80;99.90;;;;;;5010701;28;20116;-77
2023/04/08 07:45:45;;;;;;;38.40;20.58;;;5.90;99.90;;;;;;5013276;28;20046;-78
2023/04/08 07:48:11;;;;;;;41.70;21.27;;;6.00;99.90;;;;;;5012140;28;20481;-76
2023/04/08 07:50:37;;;;;;;39.42;20.42;;;6.10;99.90;;;;;;5012861;28;20036;-77
2023/04/08 07:53:02;;;;;;;40.17;21.75;;;6.10;99.90;;;;;;5013258;28;20038;-78
2023/04/08 07:55:32;;;;;;;40.72;21.98;;;6.20;99.90;;;;;;5013063;28;20433;-77
2023/04/08 07:57:58;;;;;;;36.45;21.15;;;6.20;99.90;;;;;;5011848;28;20077;-77
2023/04/08 08:00:24;;;;;;;36.88;20.85;;;6.30;99.90;;;;;;5013030;28;20496;-78
2023/04/08 08:02:49;;;;;;;36.00;20.25;;;6.40;99.90;;;;;;4996263;28;20432;-80
2023/04/08 08:05:15;;;;;;;40.85;22.02;;;6.40;99.90;;;;;;5014429;28;20029;-77
2023/04/08 08:07:41;;;;;;;37.97;21.42;;;6.50;99.90;;;;;;5012942;28;20052;-77
2023/04/08 08:10:07;;;;;;;39.20;21.85;;;6.50;99.90;;;;;;5012824;28;20456;-78
2023/04/08 08:12:33;;;;;;;41.08;21.40;;;6.70;99.90;;;;;;5012091;28;20046;-78
2023/04/08 08:14:58;;;;;;;41.35;22.17;;;6.70;99.90;;;;;;5013877;28;20045;-78
2023/04/08 08:17:25;;;;;;;37.58;21.42;;;6.80;99.90;;;;;;5014191;28;20041;-77
2023/04/08 08:19:50;;;;;;;36.47;21.85;;;6.90;99.90;;;;;;5012578;28;20088;-78
2023/04/08 08:22:16;;;;;;;37.42;21.17;;;7.10;99.90;;;;;;5013828;28;20038;-77
2023/04/08 08:24:42;;;;;;;38.53;21.95;;;7.20;99.90;;;;;;5012550;28;20374;-78
2023/04/08 08:27:10;;;;;;;37.03;21.50;;;7.50;99.90;;;;;;5012782;28;20413;-78
2023/04/08 08:29:36;;;;;;;39.42;23.17;;;7.70;99.90;;;;;;5012630;28;20042;-79
2023/04/08 08:32:02;;;;;;;36.80;21.38;;;7.80;99.90;;;;;;5013724;28;20041;-77
2023/04/08 08:34:28;;;;;;;35.25;20.55;;;7.90;99.90;;;;;;5014081;28;20042;-76
2023/04/08 08:36:54;;;;;;;32.45;19.80;;;8.00;99.90;;;;;;5012861;28;20133;-78
2023/04/08 08:39:20;;;;;;;35.13;20.45;;;8.10;99.90;;;;;;5012695;28;20068;-75
2023/04/08 08:41:46;;;;;;;34.45;20.83;;;8.20;99.90;;;;;;5012303;28;20120;-79
2023/04/08 08:44:12;;;;;;;32.38;20.17;;;8.40;99.90;;;;;;5012559;28;20460;-76
2023/04/08 08:46:43;;;;;;;32.20;19.98;;;8.60;99.90;;;;;;5012467;28;20069;-77
2023/04/08 08:49:10;;;;;;;31.33;20.10;;;8.80;99.90;;;;;;5014099;28;20100;-76
2023/04/08 08:51:38;;;;;;;32.75;20.48;;;8.70;99.90;;;;;;5012361;28;20042;-76
2023/04/08 08:54:04;;;;;;;32.90;20.58;;;8.70;99.90;;;;;;5012599;28;20041;-77
2023/04/08 08:56:31;;;;;;;33.60;20.63;;;8.80;99.90;;;;;;5012491;28;20445;-76
2023/04/08 08:58:57;;;;;;;30.60;20.45;;;8.80;99.90;;;;;;5014004;28;20498;-75
2023/04/08 09:01:29;;;;;;;31.90;20.08;;;8.90;99.90;;;;;;5013048;28;20516;-73
2023/04/08 09:04:15;;;;;;;36.33;20.85;;;9.20;99.90;;;;;;5012392;28;20038;-77
2023/04/08 09:06:41;;;;;;;29.92;18.75;;;9.50;99.90;;;;;;5012146;28;20042;-75
2023/04/08 09:09:10;;;;;;;26.90;18.27;;;9.90;99.90;;;;;;5012058;28;20049;-76
2023/04/08 09:11:38;;;;;;;26.65;17.75;;;10.30;99.90;;;;;;5011937;28;20108;-77
2023/04/08 09:14:05;;;;;;;28.35;16.60;;;10.30;99.90;;;;;;5013143;28;20038;-75
2023/04/08 09:16:32;;;;;;;28.55;18.63;;;10.10;99.90;;;;;;5013535;28;20112;-73
2023/04/08 09:19:09;;;;;;;29.10;18.58;;;10.20;99.90;;;;;;5013205;28;20034;-79
2023/04/08 09:21:35;;;;;;;30.70;18.20;;;11.10;99.90;;;;;;5011856;28;20045;-80
2023/04/08 09:24:01;;;;;;;27.25;17.63;;;12.10;99.90;;;;;;5016037;28;20038;-79
2023/04/08 09:26:27;;;;;;;27.02;17.35;;;12.80;99.90;;;;;;5013780;28;20105;-78
2023/04/08 09:29:04;;;;;;;28.08;17.00;;;12.70;99.90;;;;;;5013489;28;20049;-78
2023/04/08 09:31:37;;;;;;;28.95;18.55;;;12.30;99.90;;;;;;5016069;28;20049;-76
2023/04/08 09:34:10;;;;;;;28.27;18.48;;;11.80;99.90;;;;;;4998356;28;20057;-77
2023/04/08 09:36:36;;;;;;;29.45;17.40;;;11.60;99.90;;;;;;5015511;28;20049;-77
2023/04/08 09:39:02;;;;;;;27.58;17.63;;;11.60;99.90;;;;;;5017150;28;20397;-79
2023/04/08 09:41:28;;;;;;;27.50;18.35;;;11.40;99.90;;;;;;5017060;28;20038;-77
2023/04/08 09:43:55;;;;;;;26.92;17.25;;;11.40;99.90;;;;;;5015681;28;20128;-74
2023/04/08 09:46:26;;;;;;;27.58;17.30;;;11.60;99.90;;;;;;5016621;28;20129;-78
2023/04/08 09:49:04;;;;;;;26.30;17.45;;;11.70;99.90;;;;;;5015399;28;20042;-77
2023/04/08 09:51:35;;;;;;;25.83;17.00;;;11.80;99.90;;;;;;5016169;28;20097;-76
2023/04/08 09:54:05;;;;;;;23.48;16.33;;;12.10;99.90;;;;;;5016568;28;20113;-78
2023/04/08 09:57:08;;;;;;;23.77;16.23;;;12.30;99.90;;;;;;5015444;28;20045;-79
2023/04/08 09:59:37;;;;;;;22.23;14.57;;;12.40;99.90;;;;;;5014979;28;20041;-75
2023/04/08 10:02:10;;;;;;;21.45;14.75;;;12.30;99.90;;;;;;5014915;28;20050;-77
2023/04/08 10:04:38;;;;;;;19.70;13.30;;;12.20;99.90;;;;;;5017175;28;20389;-79
2023/04/08 10:07:07;;;;;;;20.42;13.98;;;12.10;99.90;;;;;;5016631;28;20060;-76
2023/04/08 10:09:33;;;;;;;20.30;13.55;;;12.10;99.90;;;;;;5015138;28;20124;-76
2023/04/08 10:12:00;;;;;;;18.27;13.07;;;12.20;99.90;;;;;;5015640;28;20045;-75
2023/04/08 10:14:27;;;;;;;21.25;14.02;;;12.10;99.90;;;;;;5016714;28;20473;-75
2023/04/08 10:17:30;;;;;;;21.70;14.63;;;12.20;99.90;;;;;;5014956;28;20049;-76
2023/04/08 10:19:57;;;;;;;19.67;13.30;;;12.20;99.90;;;;;;5015655;28;20045;-76
2023/04/08 10:22:45;;;;;;;20.02;14.38;;;12.30;99.90;;;;;;5014855;28;20533;-79
2023/04/08 10:25:17;;;;;;;20.50;14.02;;;12.50;99.90;;;;;;5015126;28;20367;-77
2023/04/08 10:27:44;;;;;;;20.13;13.05;;;12.60;99.90;;;;;;5014672;28;20044;-77
2023/04/08 10:30:30;;;;;;;20.98;14.18;;;12.60;99.90;;;;;;4998363;28;20057;-76
2023/04/08 10:32:58;;;;;;;21.65;14.90;;;12.80;99.90;;;;;;5014642;28;20046;-75
2023/04/08 10:35:41;;;;;;;20.08;14.55;;;12.90;99.90;;;;;;5014054;28;20129;-78
2023/04/08 10:38:07;;;;;;;19.83;13.57;;;13.00;99.90;;;;;;5015948;28;20109;-76
2023/04/08 10:40:41;;;;;;;17.02;13.15;;;13.10;99.90;;;;;;5014465;28;20046;-76
2023/04/08 10:43:08;;;;;;;19.60;14.00;;;13.20;99.90;;;;;;5014590;28;20112;-78
2023/04/08 10:45:34;;;;;;;18.85;13.80;;;13.30;99.90;;;;;;5014485;28;20565;-75
2023/04/08 10:48:23;;;;;;;18.60;13.60;;;13.40;99.90;;;;;;5014257;28;20033;-76
2023/04/08 10:50:52;;;;;;;21.00;13.95;;;13.60;99.90;;;;;;5015395;28;20042;-77
2023/04/08 10:53:22;;;;;;;18.23;12.95;;;13.50;99.90;;;;;;5014489;28;20080;-74
2023/04/08 10:55:48;;;;;;;17.75;12.15;;;13.50;99.90;;;;;;5014379;28;20457;-77
2023/04/08 10:58:14;;;;;;;16.67;11.85;;;13.60;99.90;;;;;;5014220;28;20065;-76
2023/04/08 11:00:40;;;;;;;17.90;12.88;;;13.80;99.90;;;;;;5014325;28;20142;-76
2023/04/08 11:03:08;;;;;;;15.85;11.98;;;13.70;99.90;;;;;;5014088;28;20504;-78
2023/04/08 11:05:35;;;;;;;18.40;12.30;;;13.70;99.90;;;;;;5013996;28;20085;-76
2023/04/08 11:08:01;;;;;;;15.63;11.55;;;13.50;99.90;;;;;;5013543;28;20089;-77
2023/04/08 11:10:28;;;;;;;17.25;12.10;;;13.20;99.90;;;;;;5015322;28;20042;-75
2023/04/08 11:12:54;;;;;;;17.30;11.88;;;13.10;99.90;;;;;;5013712;28;20037;-77
2023/04/08 11:15:21;;;;;;;16.52;12.10;;;13.30;99.90;;;;;;4997200;28;20044;-75
2023/04/08 11:17:48;;;;;;;17.90;12.93;;;13.50;99.90;;;;;;5014858;28;20120;-75
2023/04/08 11:20:14;;;;;;;17.98;12.38;;;13.60;99.90;;;;;;5013692;28;20053;-77
2023/04/08 11:22:40;;;;;;;15.85;12.43;;;13.80;99.90;;;;;;4997284;28;20038;-78
2023/04/08 11:25:09;;;;;;;16.80;12.27;;;13.80;99.90;;;;;;5013851;28;20069;-76
2023/04/08 11:27:36;;;;;;;16.33;12.43;;;14.10;99.90;;;;;;5015621;28;20037;-75
2023/04/08 11:30:03;;;;;;;16.00;12.10;;;14.30;99.90;;;;;;5015408;28;20477;-73
2023/04/08 11:32:29;;;;;;;16.80;12.27;;;14.60;99.90;;;;;;5015275;28;20046;-73
2023/04/08 11:34:54;;;;;;;19.35;12.88;;;14.70;99.90;;;;;;5014246;28;20049;-77
2023/04/08 11:37:21;;;;;;;17.33;12.05;;;14.50;99.90;;;;;;5014101;28;20374;-76
2023/04/08 11:39:46;;;;;;;16.90;11.95;;;14.40;99.90;;;;;;5013376;28;20085;-76
2023/04/08 11:42:32;;;;;;;19.02;12.23;;;14.30;99.90;;;;;;5013197;28;20148;-77
2023/04/08 11:44:58;;;;;;;18.95;12.15;;;14.40;99.90;;;;;;5014582;28;20042;-75
2023/04/08 11:47:32;;;;;;;14.88;10.95;;;14.50;99.90;;;;;;5012340;28;20053;-77
2023/04/08 11:49:58;;;;;;;14.63;11.02;;;14.40;99.90;;;;;;5013393;28;20052;-78
2023/04/08 11:52:40;;;;;;;15.05;11.45;;;14.40;99.90;;;;;;5013134;28;20130;-79
2023/04/08 11:55:06;;;;;;;15.27;11.85;;;14.50;99.90;;;;;;5014715;28;20120;-76
2023/04/08 11:57:32;;;;;;;16.27;11.63;;;14.50;99.90;;;;;;5013177;28;20171;-75
2023/04/08 11:59:57;;;;;;;15.93;11.90;;;14.60;99.90;;;;;;5014412;28;20117;-77
2023/04/08 12:02:23;;;;;;;20.52;11.77;;;14.80;99.90;;;;;;5014285;28;20232;-77
2023/04/08 12:04:49;;;;;;;15.20;10.70;;;14.90;99.90;;;;;;5013156;28;20037;-76
2023/04/08 12:07:16;;;;;;;16.60;11.98;;;14.90;99.90;;;;;;5014300;28;20124;-77
2023/04/08 12:09:42;;;;;;;16.27;11.80;;;14.90;99.90;;;;;;5012950;28;20065;-73
2023/04/08 12:12:07;;;;;;;17.65;12.52;;;15.00;99.90;;;;;;5012870;28;20041;-76
2023/04/08 12:14:33;;;;;;;16.92;12.13;;;15.00;99.90;;;;;;5014312;28;20036;-77
2023/04/08 12:16:58;;;;;;;15.60;11.20;;;14.80;99.90;;;;;;5012876;28;20045;-79
2023/04/08 12:19:24;;;;;;;17.23;12.43;;;14.90;99.90;;;;;;5014591;28;20045;-79
2023/04/08 12:21:50;;;;;;;16.40;11.20;;;15.10;99.90;;;;;;5013953;28;20038;-75
2023/04/08 12:24:15;;;;;;;15.27;11.65;;;15.10;99.90;;;;;;5014746;28;20382;-78
2023/04/08 12:26:41;;;;;;;15.85;11.68;;;15.20;99.90;;;;;;5012553;28;20085;-78
2023/04/08 12:29:08;;;;;;;14.27;10.57;;;15.10;99.90;;;;;;5012480;28;20042;-76
2023/04/08 12:31:34;;;;;;;15.20;10.55;;;15.20;99.90;;;;;;5013010;28;20438;-75
2023/04/08 12:34:00;;;;;;;16.30;10.88;;;15.20;99.90;;;;;;5012671;28;20081;-77
2023/04/08 12:36:26;;;;;;;16.25;10.38;;;15.20;99.90;;;;;;5012600;28;20046;-79
2023/04/08 12:38:51;;;;;;;11.80;8.93;;;15.20;99.90;;;;;;5012466;28;20049;-76
2023/04/08 12:41:17;;;;;;;15.32;9.45;;;15.30;99.90;;;;;;5012302;28;20050;-76
2023/04/08 12:43:42;;;;;;;12.82;9.38;;;15.40;99.90;;;;;;5012307;28;20176;-79
2023/04/08 12:46:08;;;;;;;14.02;10.02;;;15.60;99.90;;;;;;5012435;28;20048;-75
2023/04/08 12:48:34;;;;;;;11.55;8.65;;;15.40;99.90;;;;;;5012550;28;20045;-76
2023/04/08 12:51:00;;;;;;;12.50;8.93;;;15.30;99.90;;;;;;4996621;28;20480;-76
2023/04/08 12:53:25;;;;;;;12.27;9.15;;;15.20;99.90;;;;;;5012420;28;20045;-77
2023/04/08 12:55:55;;;;;;;11.35;8.57;;;15.30;99.90;;;;;;4995778;28;20038;-78
2023/04/08 12:58:22;;;;;;;12.68;9.27;;;15.70;99.90;;;;;;5011984;28;20144;-77
2023/04/08 13:00:48;;;;;;;12.55;8.90;;;15.70;99.90;;;;;;5013565;28;20038;-77
2023/04/08 13:03:16;;;;;;;12.82;8.95;;;15.50;99.90;;;;;;5012288;28;20128;-78
2023/04/08 13:05:42;;;;;;;12.88;9.07;;;15.30;99.90;;;;;;5013482;28;20065;-78
2023/04/08 13:08:07;;;;;;;13.73;8.98;;;15.00;99.90;;;;;;5013603;28;20034;-77
2023/04/08 13:10:33;;;;;;;13.23;9.30;;;14.80;99.90;;;;;;5011992;28;20133;-77
2023/04/08 13:12:59;;;;;;;13.63;9.93;;;14.70;99.90;;;;;;5012150;28;20045;-78
2023/04/08 13:15:25;;;;;;;12.75;8.98;;;14.50;99.90;;;;;;5012032;28;20482;-75
2023/04/08 13:17:51;;;;;;;12.57;9.30;;;14.40;99.90;;;;;;5012387;28;20095;-77
2023/04/08 13:20:16;;;;;;;13.25;8.80;;;14.20;99.90;;;;;;5011713;28;20099;-74
2023/04/08 13:22:42;;;;;;;14.45;9.65;;;14.10;99.90;;;;;;5011687;28;20049;-78
2023/04/08 13:25:08;;;;;;;12.98;9.15;;;14.00;99.90;;;;;;5011924;28;20046;-76
2023/04/08 13:27:33;;;;;;;12.02;8.63;;;13.90;99.90;;;;;;5011943;28;20057;-75
2023/04/08 13:29:59;;;;;;;16.08;9.10;;;13.70;99.90;;;;;;5013015;28;20033;-76
2023/04/08 13:32:25;;;;;;;14.60;9.02;;;13.50;99.90;;;;;;5013211;28;20045;-75
2023/04/08 13:34:50;;;;;;;12.05;9.18;;;13.30;99.90;;;;;;5011830;28;20038;-77
2023/04/08 13:37:16;;;;;;;12.93;9.40;;;13.30;99.90;;;;;;5012115;28;20038;-76
2023/04/08 13:39:42;;;;;;;15.13;9.32;;;13.20;99.90;;;;;;5011606;28;20440;-77
2023/04/08 13:42:07;;;;;;;13.43;9.00;;;13.20;99.90;;;;;;4995491;28;20445;-74
2023/04/08 13:44:33;;;;;;;13.88;9.10;;;13.10;99.90;;;;;;5011847;28;20045;-77
2023/04/08 13:46:59;;;;;;;12.77;8.95;;;13.10;99.90;;;;;;5011798;28;20046;-78
2023/04/08 13:49:24;;;;;;;13.05;8.88;;;13.10;99.90;;;;;;5011877;28;20038;-79
2023/04/08 13:51:50;;;;;;;14.40;9.48;;;13.10;99.90;;;;;;5011550;28;20034;-77
2023/04/08 13:54:16;;;;;;;14.95;9.90;;;13.20;99.90;;;;;;5013073;28;20128;-77
2023/04/08 13:56:41;;;;;;;15.20;9.57;;;13.30;99.90;;;;;;5011716;28;20612;-78
2023/04/08 13:59:09;;;;;;;13.38;9.52;;;13.20;99.90;;;;;;5011919;28;20068;-77
2023/04/08 14:01:34;;;;;;;14.65;9.95;;;13.30;99.90;;;;;;5011115;28;20073;-78
2023/04/08 14:04:00;;;;;;;16.08;9.82;;;13.30;99.90;;;;;;4996014;28;20045;-77
2023/04/08 14:06:26;;;;;;;15.10;9.32;;;13.20;99.90;;;;;;5011500;28;20050;-77
2023/04/08 14:08:52;;;;;;;16.25;10.50;;;13.20;99.90;;;;;;5013344;28;20385;-78
2023/04/08 14:11:17;;;;;;;16.27;10.00;;;13.20;99.90;;;;;;5014105;28;20042;-76
2023/04/08 14:13:43;;;;;;;15.68;10.32;;;13.10;99.90;;;;;;5015923;28;20041;-78
2023/04/08 14:16:09;;;;;;;16.70;11.00;;;13.10;99.90;;;;;;4998950;28;20046;-78
2023/04/08 14:18:35;;;;;;;16.13;11.00;;;12.90;99.90;;;;;;5014945;28;20053;-78
2023/04/08 14:21:01;;;;;;;18.58;11.05;;;12.90;99.90;;;;;;5014574;28;20117;-76
2023/04/08 14:23:27;;;;;;;18.33;12.18;;;12.90;99.90;;;;;;5015338;28;20046;-76
2023/04/08 14:25:52;;;;;;;18.35;11.63;;;12.80;99.90;;;;;;5015880;28;20045;-76
2023/04/08 14:28:18;;;;;;;19.20;12.60;;;12.80;99.90;;;;;;5015496;28;20042;-77
2023/04/08 14:30:43;;;;;;;19.75;12.18;;;12.80;99.90;;;;;;5014640;28;20073;-75
2023/04/08 14:33:09;;;;;;;21.27;12.27;;;12.70;99.90;;;;;;5014720;28;20069;-77
2023/04/08 14:35:35;;;;;;;22.23;13.05;;;12.70;99.90;;;;;;5016010;28;20060;-76
2023/04/08 14:38:01;;;;;;;21.70;13.32;;;12.70;99.90;;;;;;5014555;28;20116;-77
2023/04/08 14:40:26;;;;;;;23.20;13.25;;;12.70;99.90;;;;;;5014954;28;20185;-76
2023/04/08 14:42:52;;;;;;;24.00;14.15;;;12.80;99.90;;;;;;5014615;28;20048;-77
2023/04/08 14:45:18;;;;;;;23.17;14.20;;;12.80;99.90;;;;;;5015633;28;20033;-75
2023/04/08 14:47:44;;;;;;;23.40;14.07;;;12.70;99.90;;;;;;5015803;28;20085;-76
2023/04/08 14:50:10;;;;;;;27.02;16.08;;;12.70;99.90;;;;;;5015444;28;20342;-77
2023/04/08 14:52:36;;;;;;;23.80;15.48;;;12.70;99.90;;;;;;5014172;28;20048;-77
2023/04/08 14:55:01;;;;;;;28.20;16.88;;;12.70;99.90;;;;;;5014533;28;20080;-76
2023/04/08 14:57:27;;;;;;;23.98;15.63;;;12.70;99.90;;;;;;4997699;28;20129;-76
2023/04/08 14:59:53;;;;;;;28.00;16.08;;;12.70;99.90;;;;;;5014199;28;20084;-75
2023/04/08 15:02:19;;;;;;;28.88;17.40;;;12.60;99.90;;;;;;5014113;28;20042;-77
2023/04/08 15:04:44;;;;;;;26.38;16.95;;;12.70;99.90;;;;;;5013927;28;20050;-79
2023/04/08 15:07:10;;;;;;;29.10;18.02;;;12.60;99.90;;;;;;5013782;28;20042;-77
2023/04/08 15:09:36;;;;;;;27.23;17.05;;;12.60;99.90;;;;;;5014108;28;20425;-77
2023/04/08 15:12:02;;;;;;;28.70;17.00;;;12.50;99.90;;;;;;5013778;28;20540;-77
2023/04/08 15:14:27;;;;;;;28.30;17.00;;;12.50;99.90;;;;;;5014864;28;20092;-75
2023/04/08 15:16:53;;;;;;;27.30;15.80;;;12.50;99.90;;;;;;5013640;28;20225;-76
2023/04/08 15:19:19;;;;;;;26.70;16.20;;;12.40;99.90;;;;;;5013847;28;20104;-74
2023/04/08 15:21:44;;;;;;;27.77;16.25;;;12.40;99.90;;;;;;5013589;28;20046;-77
2023/04/08 15:24:10;;;;;;;26.05;16.80;;;12.50;99.90;;;;;;5015032;28;20049;-79
2023/04/08 15:26:36;;;;;;;26.25;16.73;;;12.50;99.90;;;;;;5013548;28;20037;-74
2023/04/08 15:29:03;;;;;;;27.13;16.30;;;12.40;99.90;;;;;;5013521;28;20033;-76
2023/04/08 15:31:29;;;;;;;29.02;17.17;;;12.30;99.90;;;;;;5013608;28;20041;-78
2023/04/08 15:33:55;;;;;;;32.55;18.00;;;12.20;99.90;;;;;;5015039;28;20038;-77
2023/04/08 15:36:20;;;;;;;28.73;17.50;;;12.20;99.90;;;;;;5014549;28;20528;-77
2023/04/08 15:38:46;;;;;;;29.63;16.92;;;12.20;99.90;;;;;;5013103;28;20042;-75
2023/04/08 15:41:20;;;;;;;32.95;18.88;;;12.10;99.90;;;;;;5013399;28;20049;-77
2023/04/08 15:43:46;;;;;;;28.20;16.63;;;12.00;99.90;;;;;;5014663;28;20397;-75
2023/04/08 15:46:19;;;;;;;25.05;16.17;;;12.00;99.90;;;;;;5013727;28;20125;-76
2023/04/08 15:48:46;;;;;;;26.98;16.95;;;11.90;99.90;;;;;;5013246;28;20049;-76
2023/04/08 15:51:12;;;;;;;28.27;16.80;;;11.90;99.90;;;;;;5014437;28;20046;-75
2023/04/08 15:53:38;;;;;;;30.25;17.50;;;11.90;99.90;;;;;;5014879;28;20041;-75
2023/04/08 15:56:04;;;;;;;25.95;15.93;;;11.90;99.90;;;;;;5013258;28;20461;-78
2023/04/08 15:58:30;;;;;;;28.20;16.70;;;11.90;99.90;;;;;;5015036;28;20042;-80
2023/04/08 16:00:56;;;;;;;27.10;15.57;;;11.90;99.90;;;;;;5014237;28;20061;-75
2023/04/08 16:03:22;;;;;;;27.65;16.23;;;11.90;99.90;;;;;;5013464;28;20483;-78
2023/04/08 16:05:48;;;;;;;25.00;15.65;;;12.00;99.90;;;;;;5013107;28;20393;-78
2023/04/08 16:08:15;;;;;;;30.25;16.67;;;12.00;99.90;;;;;;5014273;28;20038;-76
2023/04/08 16:10:41;;;;;;;28.45;16.65;;;11.90;99.90;;;;;;5012967;28;20112;-77
2023/04/08 16:13:06;;;;;;;26.08;16.88;;;11.90;99.90;;;;;;5014375;28;20037;-77
2023/04/08 16:15:33;;;;;;;27.25;16.55;;;11.90;99.90;;;;;;5012891;28;20115;-78
2023/04/08 16:17:59;;;;;;;29.02;16.88;;;11.90;99.90;;;;;;5013217;28;20506;-77
2023/04/08 16:20:25;;;;;;;25.65;16.35;;;11.90;99.90;;;;;;5012774;28;20077;-78
2023/04/08 16:22:51;;;;;;;30.42;16.80;;;11.90;99.90;;;;;;5013093;28;20050;-78
2023/04/08 16:25:17;;;;;;;29.63;16.35;;;11.90;99.90;;;;;;5013938;28;20555;-75
2023/04/08 16:27:42;;;;;;;25.40;16.40;;;11.90;99.90;;;;;;5012627;28;20042;-76
2023/04/08 16:30:08;;;;;;;27.05;17.17;;;11.90;99.90;;;;;;5012548;28;20041;-77
2023/04/08 16:32:34;;;;;;;31.25;17.52;;;11.90;99.90;;;;;;5012018;28;20409;-76